sensor_id;sensor_type;location;lat;lon;timestamp;temperature;humidity
76567;DHT22;65428;53.194;6.132;2023-04-30T00:00:49;5.50;99.90
76567;DHT22;65428;53.194;6.132;2023-04-30T00:03:15;5.40;99.90
76567;DHT22;65428;53.194;6.132;2023-04-30T00:05:40;5.30;99.90
76567;DHT22;65428;53.194;6.132;2023-04-30T00:08:06;5.30;99.90
76567;DHT22;65428;53.194;6.132;2023-04-30T00:10:31;5.20;99.90
76567;DHT22;65428;53.194;6.132;2023-04-30T00:12:57;5.40;99.90
76567;DHT22;65428;53.194;6.132;2023-04-30T00:15:23;5.30;99.90
76567;DHT22;65428;53.194;6.132;2023-04-30T00:17:49;5.30;99.90
76567;DHT22;65428;53.194;6.132;2023-04-30T00:20:14;5.20;99.90
76567;DHT22;65428;53.194;6.132;2023-04-30T00:22:40;5.20;99.90
76567;DHT22;65428;53.194;6.132;2023-04-30T00:25:06;5.20;99.90
76567;DHT22;65428;53.194;6.132;2023-04-30T00:27:31;5.10;99.90
76567;DHT22;65428;53.194;6.132;2023-04-30T00:29:57;5.20;99.90
76567;DHT22;65428;53.194;6.132;2023-04-30T00:32:23;5.10;99.90
76567;DHT22;65428;53.194;6.132;2023-04-30T00:34:49;5.30;99.90
76567;DHT22;65428;53.194;6.132;2023-04-30T00:37:14;5.40;99.90
76567;DHT22;65428;53.194;6.132;2023-04-30T00:39:40;5.10;99.90
76567;DHT22;65428;53.194;6.132;2023-04-30T00:42:05;5.10;99.90
76567;DHT22;65428;53.194;6.132;2023-04-30T00:44:31;4.80;99.90
76567;DHT22;65428;53.194;6.132;2023-04-30T00:46:57;5.00;99.90
76567;DHT22;65428;53.194;6.132;2023-04-30T00:49:23;5.10;99.90
76567;DHT22;65428;53.194;6.132;2023-04-30T00:51:48;4.80;99.90
76567;DHT22;65428;53.194;6.132;2023-04-30T00:54:15;4.80;99.90
76567;DHT22;65428;53.194;6.132;2023-04-30T00:56:42;4.90;99.90
76567;DHT22;65428;53.194;6.132;2023-04-30T00:59:08;4.70;99.90
76567;DHT22;65428;53.194;6.132;2023-04-30T01:01:35;4.90;99.90
76567;DHT22;65428;53.194;6.132;2023-04-30T01:04:00;4.80;99.90
76567;DHT22;65428;53.194;6.132;2023-04-30T01:06:26;4.90;99.90
76567;DHT22;65428;53.194;6.132;2023-04-30T01:08:52;4.90;99.90
76567;DHT22;65428;53.194;6.132;2023-04-30T01:16:59;5.10;99.90
76567;DHT22;65428;53.194;6.132;2023-04-30T01:21:57;5.10;99.90
76567;DHT22;65428;53.194;6.132;2023-04-30T01:27:56;5.20;99.90
76567;DHT22;65428;53.194;6.132;2023-04-30T01:30:26;5.30;99.90
76567;DHT22;65428;53.194;6.132;2023-04-30T01:32:52;5.40;99.90
76567;DHT22;65428;53.194;6.132;2023-04-30T01:35:17;5.40;99.90
76567;DHT22;65428;53.194;6.132;2023-04-30T01:37:58;5.50;99.90
76567;DHT22;65428;53.194;6.132;2023-04-30T01:40:50;5.70;99.90
76567;DHT22;65428;53.194;6.132;2023-04-30T01:43:49;5.60;99.90
76567;DHT22;65428;53.194;6.132;2023-04-30T01:46:24;5.70;99.90
76567;DHT22;65428;53.194;6.132;2023-04-30T01:51:41;5.70;99.90
76567;DHT22;65428;53.194;6.132;2023-04-30T01:54:27;5.70;99.90
76567;DHT22;65428;53.194;6.132;2023-04-30T01:57:04;5.80;99.90
76567;DHT22;65428;53.194;6.132;2023-04-30T01:59:35;5.80;99.90
76567;DHT22;65428;53.194;6.132;2023-04-30T02:02:02;5.90;99.90
76567;DHT22;65428;53.194;6.132;2023-04-30T02:04:28;6.30;99.90
76567;DHT22;65428;53.194;6.132;2023-04-30T02:06:54;6.00;99.90
76567;DHT22;65428;53.194;6.132;2023-04-30T02:09:21;6.10;99.90
76567;DHT22;65428;53.194;6.132;2023-04-30T02:11:48;6.20;99.90
76567;DHT22;65428;53.194;6.132;2023-04-30T02:14:14;6.50;99.90
76567;DHT22;65428;53.194;6.132;2023-04-30T02:16:40;6.30;99.90
76567;DHT22;65428;53.194;6.132;2023-04-30T02:19:05;6.30;99.90
76567;DHT22;65428;53.194;6.132;2023-04-30T02:21:31;6.30;99.90
76567;DHT22;65428;53.194;6.132;2023-04-30T02:23:57;6.30;99.90
76567;DHT22;65428;53.194;6.132;2023-04-30T02:26:22;6.40;99.90
76567;DHT22;65428;53.194;6.132;2023-04-30T02:28:48;6.40;99.90
76567;DHT22;65428;53.194;6.132;2023-04-30T02:31:14;6.50;99.90
76567;DHT22;65428;53.194;6.132;2023-04-30T02:33:39;6.50;99.90
76567;DHT22;65428;53.194;6.132;2023-04-30T02:36:05;6.60;99.90
76567;DHT22;65428;53.194;6.132;2023-04-30T02:38:31;7.10;99.90
76567;DHT22;65428;53.194;6.132;2023-04-30T02:40:57;6.80;99.90
76567;DHT22;65428;53.194;6.132;2023-04-30T02:43:22;6.60;99.90
76567;DHT22;65428;53.194;6.132;2023-04-30T02:45:48;6.60;99.90
76567;DHT22;65428;53.194;6.132;2023-04-30T02:48:14;7.00;99.90
76567;DHT22;65428;53.194;6.132;2023-04-30T02:50:40;7.10;99.90
76567;DHT22;65428;53.194;6.132;2023-04-30T02:53:05;6.70;99.90
76567;DHT22;65428;53.194;6.132;2023-04-30T02:55:31;6.70;99.90
76567;DHT22;65428;53.194;6.132;2023-04-30T02:57:57;6.70;99.90
76567;DHT22;65428;53.194;6.132;2023-04-30T03:00:23;7.10;99.90
76567;DHT22;65428;53.194;6.132;2023-04-30T03:02:48;6.70;99.90
76567;DHT22;65428;53.194;6.132;2023-04-30T03:05:14;6.60;99.90
76567;DHT22;65428;53.194;6.132;2023-04-30T03:07:42;6.60;99.90
76567;DHT22;65428;53.194;6.132;2023-04-30T03:10:08;6.70;99.90
76567;DHT22;65428;53.194;6.132;2023-04-30T03:12:35;6.60;99.90
76567;DHT22;65428;53.194;6.132;2023-04-30T03:15:00;6.80;99.90
76567;DHT22;65428;53.194;6.132;2023-04-30T03:17:26;6.60;99.90
76567;DHT22;65428;53.194;6.132;2023-04-30T03:19:52;6.70;99.90
76567;DHT22;65428;53.194;6.132;2023-04-30T03:22:17;6.80;99.90
76567;DHT22;65428;53.194;6.132;2023-04-30T03:24:45;6.70;99.90
76567;DHT22;65428;53.194;6.132;2023-04-30T03:27:10;6.70;99.90
76567;DHT22;65428;53.194;6.132;2023-04-30T03:29:36;6.60;99.90
76567;DHT22;65428;53.194;6.132;2023-04-30T03:32:02;6.60;99.90
76567;DHT22;65428;53.194;6.132;2023-04-30T03:34:27;6.60;99.90
76567;DHT22;65428;53.194;6.132;2023-04-30T03:36:53;6.60;99.90
76567;DHT22;65428;53.194;6.132;2023-04-30T03:39:19;6.50;99.90
76567;DHT22;65428;53.194;6.132;2023-04-30T03:41:45;6.70;99.90
76567;DHT22;65428;53.194;6.132;2023-04-30T03:44:10;6.50;99.90
76567;DHT22;65428;53.194;6.132;2023-04-30T03:46:43;7.00;99.90
76567;DHT22;65428;53.194;6.132;2023-04-30T03:49:09;6.50;99.90
76567;DHT22;65428;53.194;6.132;2023-04-30T03:51:36;6.70;99.90
76567;DHT22;65428;53.194;6.132;2023-04-30T03:54:07;6.40;99.90
76567;DHT22;65428;53.194;6.132;2023-04-30T03:56:33;6.40;99.90
76567;DHT22;65428;53.194;6.132;2023-04-30T03:59:00;6.00;99.90
76567;DHT22;65428;53.194;6.132;2023-04-30T04:01:26;6.10;99.90
76567;DHT22;65428;53.194;6.132;2023-04-30T04:03:53;6.20;99.90
76567;DHT22;65428;53.194;6.132;2023-04-30T04:06:19;6.20;99.90
76567;DHT22;65428;53.194;6.132;2023-04-30T04:08:45;6.10;99.90
76567;DHT22;65428;53.194;6.132;2023-04-30T04:11:11;6.00;99.90
76567;DHT22;65428;53.194;6.132;2023-04-30T04:13:37;6.00;99.90
76567;DHT22;65428;53.194;6.132;2023-04-30T04:16:03;6.00;99.90
76567;DHT22;65428;53.194;6.132;2023-04-30T04:18:28;6.00;99.90
76567;DHT22;65428;53.194;6.132;2023-04-30T04:20:54;6.20;99.90
76567;DHT22;65428;53.194;6.132;2023-04-30T04:23:23;6.20;99.90
76567;DHT22;65428;53.194;6.132;2023-04-30T04:25:49;5.90;99.90
76567;DHT22;65428;53.194;6.132;2023-04-30T04:28:15;6.10;99.90
76567;DHT22;65428;53.194;6.132;2023-04-30T04:30:41;6.00;99.90
76567;DHT22;65428;53.194;6.132;2023-04-30T04:33:08;6.00;99.90
76567;DHT22;65428;53.194;6.132;2023-04-30T04:35:35;6.20;99.90
76567;DHT22;65428;53.194;6.132;2023-04-30T04:38:01;6.80;99.90
76567;DHT22;65428;53.194;6.132;2023-04-30T04:40:27;6.20;99.90
76567;DHT22;65428;53.194;6.132;2023-04-30T04:42:53;6.20;99.90
76567;DHT22;65428;53.194;6.132;2023-04-30T04:45:19;7.00;99.90
76567;DHT22;65428;53.194;6.132;2023-04-30T04:47:45;6.40;99.90
76567;DHT22;65428;53.194;6.132;2023-04-30T04:50:11;6.30;99.90
76567;DHT22;65428;53.194;6.132;2023-04-30T04:52:37;6.50;99.90
76567;DHT22;65428;53.194;6.132;2023-04-30T04:55:04;6.40;99.90
76567;DHT22;65428;53.194;6.132;2023-04-30T04:57:30;6.50;99.90
76567;DHT22;65428;53.194;6.132;2023-04-30T04:59:56;6.70;99.90
76567;DHT22;65428;53.194;6.132;2023-04-30T05:02:22;6.50;99.90
76567;DHT22;65428;53.194;6.132;2023-04-30T05:04:48;6.70;99.90
76567;DHT22;65428;53.194;6.132;2023-04-30T05:07:16;6.60;99.90
76567;DHT22;65428;53.194;6.132;2023-04-30T05:09:43;6.60;99.90
76567;DHT22;65428;53.194;6.132;2023-04-30T05:12:08;6.70;99.90
76567;DHT22;65428;53.194;6.132;2023-04-30T05:14:34;6.70;99.90
76567;DHT22;65428;53.194;6.132;2023-04-30T05:17:01;6.90;99.90
76567;DHT22;65428;53.194;6.132;2023-04-30T05:19:27;7.10;99.90
76567;DHT22;65428;53.194;6.132;2023-04-30T05:21:53;7.00;99.90
76567;DHT22;65428;53.194;6.132;2023-04-30T05:24:18;7.50;99.90
76567;DHT22;65428;53.194;6.132;2023-04-30T05:26:44;7.10;99.90
76567;DHT22;65428;53.194;6.132;2023-04-30T05:29:10;7.10;99.90
76567;DHT22;65428;53.194;6.132;2023-04-30T05:31:36;7.30;99.90
76567;DHT22;65428;53.194;6.132;2023-04-30T05:34:02;7.40;99.90
76567;DHT22;65428;53.194;6.132;2023-04-30T05:36:28;7.50;99.90
76567;DHT22;65428;53.194;6.132;2023-04-30T05:38:54;7.60;99.90
76567;DHT22;65428;53.194;6.132;2023-04-30T05:41:20;7.70;99.90
76567;DHT22;65428;53.194;6.132;2023-04-30T05:43:46;8.10;99.90
76567;DHT22;65428;53.194;6.132;2023-04-30T05:46:12;7.90;99.90
76567;DHT22;65428;53.194;6.132;2023-04-30T05:48:38;8.20;99.90
76567;DHT22;65428;53.194;6.132;2023-04-30T05:51:04;8.20;99.90
76567;DHT22;65428;53.194;6.132;2023-04-30T05:53:32;8.20;99.90
76567;DHT22;65428;53.194;6.132;2023-04-30T05:55:58;8.30;99.90
76567;DHT22;65428;53.194;6.132;2023-04-30T05:58:24;8.40;99.90
76567;DHT22;65428;53.194;6.132;2023-04-30T06:00:51;8.50;99.90
76567;DHT22;65428;53.194;6.132;2023-04-30T06:03:19;8.50;99.90
76567;DHT22;65428;53.194;6.132;2023-04-30T06:05:46;8.90;99.90
76567;DHT22;65428;53.194;6.132;2023-04-30T06:08:12;8.60;99.90
76567;DHT22;65428;53.194;6.132;2023-04-30T06:10:38;8.60;99.90
76567;DHT22;65428;53.194;6.132;2023-04-30T06:13:03;8.60;99.90
76567;DHT22;65428;53.194;6.132;2023-04-30T06:15:30;8.80;99.90
76567;DHT22;65428;53.194;6.132;2023-04-30T06:17:55;8.90;99.90
76567;DHT22;65428;53.194;6.132;2023-04-30T06:20:21;9.20;99.90
76567;DHT22;65428;53.194;6.132;2023-04-30T06:22:47;8.90;99.90
76567;DHT22;65428;53.194;6.132;2023-04-30T06:25:12;8.60;99.90
76567;DHT22;65428;53.194;6.132;2023-04-30T06:27:38;9.00;99.90
76567;DHT22;65428;53.194;6.132;2023-04-30T06:30:04;9.10;99.90
76567;DHT22;65428;53.194;6.132;2023-04-30T06:32:30;9.10;99.90
76567;DHT22;65428;53.194;6.132;2023-04-30T06:34:56;9.30;99.90
76567;DHT22;65428;53.194;6.132;2023-04-30T06:37:22;9.40;99.90
76567;DHT22;65428;53.194;6.132;2023-04-30T06:39:48;9.60;99.90
76567;DHT22;65428;53.194;6.132;2023-04-30T06:42:14;10.00;99.90
76567;DHT22;65428;53.194;6.132;2023-04-30T06:44:39;9.60;99.90
76567;DHT22;65428;53.194;6.132;2023-04-30T06:47:05;10.10;99.90
76567;DHT22;65428;53.194;6.132;2023-04-30T06:49:31;10.20;99.90
76567;DHT22;65428;53.194;6.132;2023-04-30T06:51:56;10.20;99.90
76567;DHT22;65428;53.194;6.132;2023-04-30T06:54:23;10.30;99.90
76567;DHT22;65428;53.194;6.132;2023-04-30T06:56:51;10.40;99.90
76567;DHT22;65428;53.194;6.132;2023-04-30T06:59:17;10.50;99.90
76567;DHT22;65428;53.194;6.132;2023-04-30T07:01:42;10.50;99.90
76567;DHT22;65428;53.194;6.132;2023-04-30T07:04:08;10.70;99.90
76567;DHT22;65428;53.194;6.132;2023-04-30T07:06:34;10.70;99.90
76567;DHT22;65428;53.194;6.132;2023-04-30T07:08:59;10.90;99.90
76567;DHT22;65428;53.194;6.132;2023-04-30T07:11:25;11.40;99.90
76567;DHT22;65428;53.194;6.132;2023-04-30T07:13:54;11.00;99.90
76567;DHT22;65428;53.194;6.132;2023-04-30T07:16:19;11.60;99.90
76567;DHT22;65428;53.194;6.132;2023-04-30T07:18:45;11.50;99.90
76567;DHT22;65428;53.194;6.132;2023-04-30T07:21:13;11.20;99.90
76567;DHT22;65428;53.194;6.132;2023-04-30T07:23:39;11.30;99.90
76567;DHT22;65428;53.194;6.132;2023-04-30T07:26:05;11.30;99.90
76567;DHT22;65428;53.194;6.132;2023-04-30T07:28:31;11.40;99.90
76567;DHT22;65428;53.194;6.132;2023-04-30T07:30:56;11.40;99.90
76567;DHT22;65428;53.194;6.132;2023-04-30T07:33:22;11.40;99.90
76567;DHT22;65428;53.194;6.132;2023-04-30T07:35:48;11.40;99.90
76567;DHT22;65428;53.194;6.132;2023-04-30T07:38:13;11.60;99.90
76567;DHT22;65428;53.194;6.132;2023-04-30T07:40:39;11.80;99.90
76567;DHT22;65428;53.194;6.132;2023-04-30T07:43:05;12.00;99.90
76567;DHT22;65428;53.194;6.132;2023-04-30T07:45:31;11.80;99.90
76567;DHT22;65428;53.194;6.132;2023-04-30T07:47:58;11.70;99.90
76567;DHT22;65428;53.194;6.132;2023-04-30T07:50:24;12.00;99.90
76567;DHT22;65428;53.194;6.132;2023-04-30T07:52:49;12.30;99.90
76567;DHT22;65428;53.194;6.132;2023-04-30T07:55:15;12.20;99.90
76567;DHT22;65428;53.194;6.132;2023-04-30T07:57:41;12.20;99.90
76567;DHT22;65428;53.194;6.132;2023-04-30T08:00:07;12.50;99.90
76567;DHT22;65428;53.194;6.132;2023-04-30T08:02:33;12.30;99.90
76567;DHT22;65428;53.194;6.132;2023-04-30T08:04:59;12.50;99.90
76567;DHT22;65428;53.194;6.132;2023-04-30T08:07:24;13.00;99.90
76567;DHT22;65428;53.194;6.132;2023-04-30T08:09:50;12.50;99.90
76567;DHT22;65428;53.194;6.132;2023-04-30T08:12:16;12.30;99.90
76567;DHT22;65428;53.194;6.132;2023-04-30T08:14:42;12.60;99.90
76567;DHT22;65428;53.194;6.132;2023-04-30T08:17:08;12.60;99.90
76567;DHT22;65428;53.194;6.132;2023-04-30T08:19:34;12.50;99.70
76567;DHT22;65428;53.194;6.132;2023-04-30T08:21:59;12.60;99.90
76567;DHT22;65428;53.194;6.132;2023-04-30T08:24:25;13.00;99.40
76567;DHT22;65428;53.194;6.132;2023-04-30T08:26:51;12.80;99.90
76567;DHT22;65428;53.194;6.132;2023-04-30T08:29:17;12.90;99.10
76567;DHT22;65428;53.194;6.132;2023-04-30T08:31:42;12.70;97.60
76567;DHT22;65428;53.194;6.132;2023-04-30T08:34:08;13.40;99.90
76567;DHT22;65428;53.194;6.132;2023-04-30T08:36:34;13.30;93.90
76567;DHT22;65428;53.194;6.132;2023-04-30T08:39:00;13.70;95.40
76567;DHT22;65428;53.194;6.132;2023-04-30T08:41:31;13.70;90.90
76567;DHT22;65428;53.194;6.132;2023-04-30T08:44:00;13.90;91.00
76567;DHT22;65428;53.194;6.132;2023-04-30T08:46:28;13.70;83.90
76567;DHT22;65428;53.194;6.132;2023-04-30T08:48:55;13.80;90.40
76567;DHT22;65428;53.194;6.132;2023-04-30T08:51:21;13.80;90.40
76567;DHT22;65428;53.194;6.132;2023-04-30T08:53:49;13.90;92.60
76567;DHT22;65428;53.194;6.132;2023-04-30T08:56:15;13.90;83.80
76567;DHT22;65428;53.194;6.132;2023-04-30T08:58:41;13.90;82.50
76567;DHT22;65428;53.194;6.132;2023-04-30T09:01:09;14.10;76.00
76567;DHT22;65428;53.194;6.132;2023-04-30T09:03:36;13.70;85.70
76567;DHT22;65428;53.194;6.132;2023-04-30T09:06:01;13.60;78.30
76567;DHT22;65428;53.194;6.132;2023-04-30T09:13:59;13.40;86.90
76567;DHT22;65428;53.194;6.132;2023-04-30T09:16:26;13.40;85.40
76567;DHT22;65428;53.194;6.132;2023-04-30T09:18:52;13.40;83.10
76567;DHT22;65428;53.194;6.132;2023-04-30T09:21:31;13.50;84.30
76567;DHT22;65428;53.194;6.132;2023-04-30T09:23:59;13.50;90.10
76567;DHT22;65428;53.194;6.132;2023-04-30T09:26:36;13.50;90.90
76567;DHT22;65428;53.194;6.132;2023-04-30T09:29:03;13.60;84.80
76567;DHT22;65428;53.194;6.132;2023-04-30T09:31:40;13.50;87.60
76567;DHT22;65428;53.194;6.132;2023-04-30T09:34:06;13.60;90.90
76567;DHT22;65428;53.194;6.132;2023-04-30T09:36:32;13.70;91.00
76567;DHT22;65428;53.194;6.132;2023-04-30T09:39:09;14.20;86.70
76567;DHT22;65428;53.194;6.132;2023-04-30T09:41:43;14.40;84.80
76567;DHT22;65428;53.194;6.132;2023-04-30T09:44:29;14.30;81.80
76567;DHT22;65428;53.194;6.132;2023-04-30T09:46:55;14.50;89.20
76567;DHT22;65428;53.194;6.132;2023-04-30T09:49:24;14.60;85.40
76567;DHT22;65428;53.194;6.132;2023-04-30T09:51:58;15.10;79.20
76567;DHT22;65428;53.194;6.132;2023-04-30T09:54:25;15.00;76.30
76567;DHT22;65428;53.194;6.132;2023-04-30T09:56:53;15.30;72.90
76567;DHT22;65428;53.194;6.132;2023-04-30T10:01:53;15.40;65.80
76567;DHT22;65428;53.194;6.132;2023-04-30T10:04:20;15.60;66.60
76567;DHT22;65428;53.194;6.132;2023-04-30T10:06:46;15.90;66.30
76567;DHT22;65428;53.194;6.132;2023-04-30T10:09:13;15.90;60.50
76567;DHT22;65428;53.194;6.132;2023-04-30T10:11:42;15.80;63.90
76567;DHT22;65428;53.194;6.132;2023-04-30T10:14:12;16.00;65.70
76567;DHT22;65428;53.194;6.132;2023-04-30T10:17:07;16.10;68.30
76567;DHT22;65428;53.194;6.132;2023-04-30T10:19:33;16.10;65.70
76567;DHT22;65428;53.194;6.132;2023-04-30T10:22:01;16.30;68.60
76567;DHT22;65428;53.194;6.132;2023-04-30T10:24:27;16.70;65.50
76567;DHT22;65428;53.194;6.132;2023-04-30T10:26:54;17.20;61.20
76567;DHT22;65428;53.194;6.132;2023-04-30T10:29:22;17.60;62.10
76567;DHT22;65428;53.194;6.132;2023-04-30T10:31:49;18.00;57.90
76567;DHT22;65428;53.194;6.132;2023-04-30T10:37:42;18.30;56.90
76567;DHT22;65428;53.194;6.132;2023-04-30T10:40:10;18.60;56.40
76567;DHT22;65428;53.194;6.132;2023-04-30T10:42:36;18.70;53.60
76567;DHT22;65428;53.194;6.132;2023-04-30T10:45:03;18.90;57.50
76567;DHT22;65428;53.194;6.132;2023-04-30T10:47:29;19.40;54.90
76567;DHT22;65428;53.194;6.132;2023-04-30T10:50:02;19.70;55.00
76567;DHT22;65428;53.194;6.132;2023-04-30T10:52:29;19.90;51.60
76567;DHT22;65428;53.194;6.132;2023-04-30T10:54:54;20.00;52.30
76567;DHT22;65428;53.194;6.132;2023-04-30T10:57:21;20.30;52.50
76567;DHT22;65428;53.194;6.132;2023-04-30T10:59:52;20.70;52.40
76567;DHT22;65428;53.194;6.132;2023-04-30T11:02:18;21.00;52.60
76567;DHT22;65428;53.194;6.132;2023-04-30T11:07:32;21.60;49.10
76567;DHT22;65428;53.194;6.132;2023-04-30T11:09:59;21.70;48.40
76567;DHT22;65428;53.194;6.132;2023-04-30T11:12:27;22.00;48.70
76567;DHT22;65428;53.194;6.132;2023-04-30T11:17:26;22.10;47.00
76567;DHT22;65428;53.194;6.132;2023-04-30T11:19:53;22.20;48.30
76567;DHT22;65428;53.194;6.132;2023-04-30T11:22:20;22.30;47.50
76567;DHT22;65428;53.194;6.132;2023-04-30T11:24:51;22.20;46.70
76567;DHT22;65428;53.194;6.132;2023-04-30T11:27:22;22.40;45.50
76567;DHT22;65428;53.194;6.132;2023-04-30T11:29:48;22.50;42.90
76567;DHT22;65428;53.194;6.132;2023-04-30T11:32:14;22.70;45.80
76567;DHT22;65428;53.194;6.132;2023-04-30T11:34:42;22.60;44.10
76567;DHT22;65428;53.194;6.132;2023-04-30T11:37:11;22.70;44.50
76567;DHT22;65428;53.194;6.132;2023-04-30T11:39:38;23.00;47.20
76567;DHT22;65428;53.194;6.132;2023-04-30T11:42:06;23.40;43.00
76567;DHT22;65428;53.194;6.132;2023-04-30T11:44:31;23.60;44.10
76567;DHT22;65428;53.194;6.132;2023-04-30T11:46:57;23.40;42.50
76567;DHT22;65428;53.194;6.132;2023-04-30T11:49:24;23.30;43.60
76567;DHT22;65428;53.194;6.132;2023-04-30T11:51:51;23.30;43.90
76567;DHT22;65428;53.194;6.132;2023-04-30T11:54:18;23.80;47.10
76567;DHT22;65428;53.194;6.132;2023-04-30T11:56:47;24.00;44.50
76567;DHT22;65428;53.194;6.132;2023-04-30T11:59:13;24.30;43.80
76567;DHT22;65428;53.194;6.132;2023-04-30T12:01:40;24.70;42.60
76567;DHT22;65428;53.194;6.132;2023-04-30T12:04:06;25.00;41.90
76567;DHT22;65428;53.194;6.132;2023-04-30T12:06:33;24.80;41.90
76567;DHT22;65428;53.194;6.132;2023-04-30T12:09:01;25.00;43.80
76567;DHT22;65428;53.194;6.132;2023-04-30T12:11:36;25.30;42.30
76567;DHT22;65428;53.194;6.132;2023-04-30T12:14:07;25.40;41.20
76567;DHT22;65428;53.194;6.132;2023-04-30T12:16:46;25.30;41.30
76567;DHT22;65428;53.194;6.132;2023-04-30T12:19:17;25.30;40.10
76567;DHT22;65428;53.194;6.132;2023-04-30T12:21:44;25.60;40.80
76567;DHT22;65428;53.194;6.132;2023-04-30T12:24:18;25.70;39.60
76567;DHT22;65428;53.194;6.132;2023-04-30T12:26:44;25.80;41.80
76567;DHT22;65428;53.194;6.132;2023-04-30T12:29:13;25.90;39.20
76567;DHT22;65428;53.194;6.132;2023-04-30T12:31:39;26.00;38.60
76567;DHT22;65428;53.194;6.132;2023-04-30T12:34:13;26.10;39.00
76567;DHT22;65428;53.194;6.132;2023-04-30T12:36:40;26.20;41.30
76567;DHT22;65428;53.194;6.132;2023-04-30T12:39:11;26.60;40.10
76567;DHT22;65428;53.194;6.132;2023-04-30T12:41:42;26.90;37.70
76567;DHT22;65428;53.194;6.132;2023-04-30T12:44:19;26.50;35.90
76567;DHT22;65428;53.194;6.132;2023-04-30T12:46:49;25.90;40.70
76567;DHT22;65428;53.194;6.132;2023-04-30T12:49:29;26.00;41.00
76567;DHT22;65428;53.194;6.132;2023-04-30T12:52:24;25.90;40.30
76567;DHT22;65428;53.194;6.132;2023-04-30T12:54:51;26.20;38.90
76567;DHT22;65428;53.194;6.132;2023-04-30T12:57:17;26.40;38.70
76567;DHT22;65428;53.194;6.132;2023-04-30T13:02:21;26.60;37.70
76567;DHT22;65428;53.194;6.132;2023-04-30T13:04:48;26.60;38.40
76567;DHT22;65428;53.194;6.132;2023-04-30T13:07:14;26.90;38.80
76567;DHT22;65428;53.194;6.132;2023-04-30T13:09:40;27.40;40.30
76567;DHT22;65428;53.194;6.132;2023-04-30T13:12:06;27.70;35.00
76567;DHT22;65428;53.194;6.132;2023-04-30T13:14:32;27.30;37.60
76567;DHT22;65428;53.194;6.132;2023-04-30T13:16:57;26.80;36.00
76567;DHT22;65428;53.194;6.132;2023-04-30T13:19:23;25.90;38.30
76567;DHT22;65428;53.194;6.132;2023-04-30T13:21:49;26.00;40.80
76567;DHT22;65428;53.194;6.132;2023-04-30T13:24:15;26.00;38.30
76567;DHT22;65428;53.194;6.132;2023-04-30T13:26:42;26.10;39.10
76567;DHT22;65428;53.194;6.132;2023-04-30T13:29:08;26.50;40.60
76567;DHT22;65428;53.194;6.132;2023-04-30T13:31:34;27.10;36.50
76567;DHT22;65428;53.194;6.132;2023-04-30T13:33:59;27.40;37.80
76567;DHT22;65428;53.194;6.132;2023-04-30T13:36:26;27.80;36.70
76567;DHT22;65428;53.194;6.132;2023-04-30T13:38:51;28.10;38.30
76567;DHT22;65428;53.194;6.132;2023-04-30T13:41:17;28.50;37.60
76567;DHT22;65428;53.194;6.132;2023-04-30T13:43:43;28.90;35.10
76567;DHT22;65428;53.194;6.132;2023-04-30T13:46:10;29.10;33.90
76567;DHT22;65428;53.194;6.132;2023-04-30T13:48:36;29.10;34.40
76567;DHT22;65428;53.194;6.132;2023-04-30T13:51:02;29.70;37.00
76567;DHT22;65428;53.194;6.132;2023-04-30T13:53:27;29.90;34.60
76567;DHT22;65428;53.194;6.132;2023-04-30T13:55:53;30.10;32.70
76567;DHT22;65428;53.194;6.132;2023-04-30T13:58:19;30.20;35.00
76567;DHT22;65428;53.194;6.132;2023-04-30T14:00:45;30.30;34.30
76567;DHT22;65428;53.194;6.132;2023-04-30T14:03:10;30.00;34.70
76567;DHT22;65428;53.194;6.132;2023-04-30T14:05:37;30.10;33.00
76567;DHT22;65428;53.194;6.132;2023-04-30T14:08:04;30.30;33.70
76567;DHT22;65428;53.194;6.132;2023-04-30T14:10:30;30.70;35.00
76567;DHT22;65428;53.194;6.132;2023-04-30T14:12:56;31.00;32.60
76567;DHT22;65428;53.194;6.132;2023-04-30T14:15:21;31.20;33.00
76567;DHT22;65428;53.194;6.132;2023-04-30T14:17:47;31.20;32.10
76567;DHT22;65428;53.194;6.132;2023-04-30T14:20:12;31.10;30.90
76567;DHT22;65428;53.194;6.132;2023-04-30T14:22:38;31.00;31.00
76567;DHT22;65428;53.194;6.132;2023-04-30T14:25:04;30.50;33.10
76567;DHT22;65428;53.194;6.132;2023-04-30T14:27:30;29.90;34.90
76567;DHT22;65428;53.194;6.132;2023-04-30T14:29:56;29.10;35.00
76567;DHT22;65428;53.194;6.132;2023-04-30T14:32:25;28.20;34.50
76567;DHT22;65428;53.194;6.132;2023-04-30T14:34:51;27.40;34.40
76567;DHT22;65428;53.194;6.132;2023-04-30T14:37:17;26.70;36.10
76567;DHT22;65428;53.194;6.132;2023-04-30T14:39:43;25.90;34.70
76567;DHT22;65428;53.194;6.132;2023-04-30T14:42:09;25.20;38.60
76567;DHT22;65428;53.194;6.132;2023-04-30T14:44:36;24.70;37.70
76567;DHT22;65428;53.194;6.132;2023-04-30T14:47:02;24.10;39.50
76567;DHT22;65428;53.194;6.132;2023-04-30T14:49:29;23.70;42.20
76567;DHT22;65428;53.194;6.132;2023-04-30T14:51:54;23.30;41.10
76567;DHT22;65428;53.194;6.132;2023-04-30T14:54:20;22.90;44.40
76567;DHT22;65428;53.194;6.132;2023-04-30T14:56:46;22.80;43.20
76567;DHT22;65428;53.194;6.132;2023-04-30T14:59:12;22.50;43.60
76567;DHT22;65428;53.194;6.132;2023-04-30T15:01:39;22.10;43.80
76567;DHT22;65428;53.194;6.132;2023-04-30T15:04:04;21.80;42.40
76567;DHT22;65428;53.194;6.132;2023-04-30T15:06:30;21.70;48.70
76567;DHT22;65428;53.194;6.132;2023-04-30T15:08:56;22.00;45.50
76567;DHT22;65428;53.194;6.132;2023-04-30T15:11:22;21.50;45.90
76567;DHT22;65428;53.194;6.132;2023-04-30T15:13:49;21.60;47.00
76567;DHT22;65428;53.194;6.132;2023-04-30T15:16:14;21.10;47.20
76567;DHT22;65428;53.194;6.132;2023-04-30T15:18:41;21.20;46.50
76567;DHT22;65428;53.194;6.132;2023-04-30T15:21:07;20.80;44.70
76567;DHT22;65428;53.194;6.132;2023-04-30T15:23:33;20.70;45.80
76567;DHT22;65428;53.194;6.132;2023-04-30T15:26:00;20.70;47.10
76567;DHT22;65428;53.194;6.132;2023-04-30T15:28:25;20.50;47.50
76567;DHT22;65428;53.194;6.132;2023-04-30T15:30:51;20.30;50.20
76567;DHT22;65428;53.194;6.132;2023-04-30T15:33:17;20.20;51.10
76567;DHT22;65428;53.194;6.132;2023-04-30T15:35:48;20.30;48.70
76567;DHT22;65428;53.194;6.132;2023-04-30T15:38:14;20.20;47.50
76567;DHT22;65428;53.194;6.132;2023-04-30T15:40:40;20.20;47.80
76567;DHT22;65428;53.194;6.132;2023-04-30T15:43:05;20.30;47.10
76567;DHT22;65428;53.194;6.132;2023-04-30T15:45:32;20.20;51.70
76567;DHT22;65428;53.194;6.132;2023-04-30T15:47:58;19.80;46.20
76567;DHT22;65428;53.194;6.132;2023-04-30T15:50:25;19.80;46.80
76567;DHT22;65428;53.194;6.132;2023-04-30T15:52:51;20.20;45.40
76567;DHT22;65428;53.194;6.132;2023-04-30T15:55:17;20.00;47.60
76567;DHT22;65428;53.194;6.132;2023-04-30T15:57:42;20.40;47.70
76567;DHT22;65428;53.194;6.132;2023-04-30T16:00:09;20.30;48.40
76567;DHT22;65428;53.194;6.132;2023-04-30T16:02:35;20.20;47.70
76567;DHT22;65428;53.194;6.132;2023-04-30T16:05:01;20.50;47.90
76567;DHT22;65428;53.194;6.132;2023-04-30T16:07:27;20.10;47.00
76567;DHT22;65428;53.194;6.132;2023-04-30T16:09:52;19.90;48.20